sensor_id;sensor_type;location;lat;lon;timestamp;pressure;altitude;pressure_sealevel;temperature;humidity
54978;BME280;40873;47.522;19.106;2022-12-16T00:01:17;99581.69;;;1.98;100.00
54978;BME280;40873;47.522;19.106;2022-12-16T00:03:49;99579.09;;;1.98;100.00
54978;BME280;40873;47.522;19.106;2022-12-16T00:06:18;99583.63;;;1.92;100.00
54978;BME280;40873;47.522;19.106;2022-12-16T00:08:49;99576.50;;;1.98;100.00
54978;BME280;40873;47.522;19.106;2022-12-16T00:11:18;99569.53;;;1.98;100.00
54978;BME280;40873;47.522;19.106;2022-12-16T00:13:48;99559.91;;;2.00;100.00
54978;BME280;40873;47.522;19.106;2022-12-16T00:16:18;99556.38;;;2.03;100.00
54978;BME280;40873;47.522;19.106;2022-12-16T00:18:45;99553.63;;;2.06;100.00
54978;BME280;40873;47.522;19.106;2022-12-16T00:21:13;99549.41;;;2.03;100.00
54978;BME280;40873;47.522;19.106;2022-12-16T00:23:40;99543.34;;;2.03;100.00
54978;BME280;40873;47.522;19.106;2022-12-16T00:26:10;99557.16;;;2.05;100.00
54978;BME280;40873;47.522;19.106;2022-12-16T00:28:41;99548.44;;;2.06;100.00
54978;BME280;40873;47.522;19.106;2022-12-16T00:31:11;99556.06;;;2.10;100.00
54978;BME280;40873;47.522;19.106;2022-12-16T00:33:38;99550.81;;;2.12;100.00
54978;BME280;40873;47.522;19.106;2022-12-16T00:36:06;99552.41;;;2.14;100.00
54978;BME280;40873;47.522;19.106;2022-12-16T00:38:33;99552.31;;;2.17;100.00
54978;BME280;40873;47.522;19.106;2022-12-16T00:41:01;99564.59;;;2.14;100.00
54978;BME280;40873;47.522;19.106;2022-12-16T00:43:27;99559.31;;;2.15;100.00
54978;BME280;40873;47.522;19.106;2022-12-16T00:45:55;99553.53;;;2.09;100.00
54978;BME280;40873;47.522;19.106;2022-12-16T00:48:22;99549.19;;;2.09;100.00
54978;BME280;40873;47.522;19.106;2022-12-16T00:50:52;99557.00;;;2.08;100.00
54978;BME280;40873;47.522;19.106;2022-12-16T00:53:22;99558.59;;;2.12;100.00
54978;BME280;40873;47.522;19.106;2022-12-16T00:55:50;99551.72;;;2.11;100.00
54978;BME280;40873;47.522;19.106;2022-12-16T00:58:17;99549.03;;;2.12;100.00
54978;BME280;40873;47.522;19.106;2022-12-16T01:00:44;99542.16;;;2.11;100.00
54978;BME280;40873;47.522;19.106;2022-12-16T01:03:11;99534.41;;;2.10;100.00
54978;BME280;40873;47.522;19.106;2022-12-16T01:05:47;99532.59;;;2.12;100.00
54978;BME280;40873;47.522;19.106;2022-12-16T01:08:13;99522.34;;;2.07;100.00
54978;BME280;40873;47.522;19.106;2022-12-16T01:10:40;99513.59;;;2.10;100.00
54978;BME280;40873;47.522;19.106;2022-12-16T01:13:07;99513.69;;;2.07;100.00
54978;BME280;40873;47.522;19.106;2022-12-16T01:15:36;99510.09;;;2.11;100.00
54978;BME280;40873;47.522;19.106;2022-12-16T01:18:03;99502.22;;;2.12;100.00
54978;BME280;40873;47.522;19.106;2022-12-16T01:20:31;99489.13;;;2.14;100.00
54978;BME280;40873;47.522;19.106;2022-12-16T01:22:58;99480.53;;;2.12;100.00
54978;BME280;40873;47.522;19.106;2022-12-16T01:25:26;99484.84;;;2.13;100.00
54978;BME280;40873;47.522;19.106;2022-12-16T01:27:52;99472.81;;;2.10;100.00
54978;BME280;40873;47.522;19.106;2022-12-16T01:30:21;99482.38;;;2.10;100.00
54978;BME280;40873;47.522;19.106;2022-12-16T01:32:48;99473.72;;;2.09;100.00
54978;BME280;40873;47.522;19.106;2022-12-16T01:35:16;99461.56;;;2.10;100.00
54978;BME280;40873;47.522;19.106;2022-12-16T01:38:03;99453.63;;;2.13;100.00
54978;BME280;40873;47.522;19.106;2022-12-16T01:40:30;99449.47;;;2.09;100.00
54978;BME280;40873;47.522;19.106;2022-12-16T01:42:57;99442.81;;;2.02;100.00
54978;BME280;40873;47.522;19.106;2022-12-16T01:45:28;99441.41;;;1.93;100.00
54978;BME280;40873;47.522;19.106;2022-12-16T01:47:59;99430.88;;;1.96;100.00
54978;BME280;40873;47.522;19.106;2022-12-16T01:50:28;99426.31;;;2.01;100.00
54978;BME280;40873;47.522;19.106;2022-12-16T01:52:58;99416.72;;;2.03;100.00
54978;BME280;40873;47.522;19.106;2022-12-16T01:55:34;99413.38;;;2.00;100.00
54978;BME280;40873;47.522;19.106;2022-12-16T01:58:13;99404.56;;;2.04;100.00
54978;BME280;40873;47.522;19.106;2022-12-16T02:00:42;99402.88;;;2.03;100.00
54978;BME280;40873;47.522;19.106;2022-12-16T02:03:09;99393.09;;;2.08;100.00
54978;BME280;40873;47.522;19.106;2022-12-16T02:05:40;99385.28;;;2.08;100.00
54978;BME280;40873;47.522;19.106;2022-12-16T02:13:34;99351.22;;;2.14;100.00
54978;BME280;40873;47.522;19.106;2022-12-16T02:16:24;99347.69;;;2.15;100.00
54978;BME280;40873;47.522;19.106;2022-12-16T02:25:22;99296.31;;;2.20;100.00
54978;BME280;40873;47.522;19.106;2022-12-16T02:34:20;99261.31;;;2.27;100.00
54978;BME280;40873;47.522;19.106;2022-12-16T02:37:13;99264.13;;;2.23;100.00
54978;BME280;40873;47.522;19.106;2022-12-16T02:39:54;99259.81;;;2.22;100.00
54978;BME280;40873;47.522;19.106;2022-12-16T02:42:35;99264.13;;;2.23;100.00
54978;BME280;40873;47.522;19.106;2022-12-16T02:45:24;99258.13;;;2.20;100.00
54978;BME280;40873;47.522;19.106;2022-12-16T02:47:53;99267.88;;;2.15;100.00
54978;BME280;40873;47.522;19.106;2022-12-16T02:50:25;99270.44;;;2.17;100.00
54978;BME280;40873;47.522;19.106;2022-12-16T02:52:53;99267.63;;;2.22;100.00
54978;BME280;40873;47.522;19.106;2022-12-16T02:55:32;99271.28;;;2.17;100.00
54978;BME280;40873;47.522;19.106;2022-12-16T03:03:44;99286.56;;;2.25;100.00
54978;BME280;40873;47.522;19.106;2022-12-16T03:06:15;99283.88;;;2.27;100.00
54978;BME280;40873;47.522;19.106;2022-12-16T03:08:48;99269.84;;;2.31;100.00
54978;BME280;40873;47.522;19.106;2022-12-16T03:11:17;99272.09;;;2.38;100.00
54978;BME280;40873;47.522;19.106;2022-12-16T03:13:49;99267.16;;;2.32;100.00
54978;BME280;40873;47.522;19.106;2022-12-16T03:16:20;99269.69;;;2.34;100.00
54978;BME280;40873;47.522;19.106;2022-12-16T03:18:50;99257.53;;;2.34;100.00
54978;BME280;40873;47.522;19.106;2022-12-16T03:21:23;99244.09;;;2.25;100.00
54978;BME280;40873;47.522;19.106;2022-12-16T03:23:56;99215.31;;;2.28;100.00
54978;BME280;40873;47.522;19.106;2022-12-16T03:26:29;99195.34;;;2.28;100.00
54978;BME280;40873;47.522;19.106;2022-12-16T03:29:29;99240.72;;;2.41;100.00
54978;BME280;40873;47.522;19.106;2022-12-16T03:32:02;99213.94;;;2.39;100.00
54978;BME280;40873;47.522;19.106;2022-12-16T03:37:01;99183.34;;;2.44;100.00
54978;BME280;40873;47.522;19.106;2022-12-16T03:39:35;99220.69;;;2.43;100.00
54978;BME280;40873;47.522;19.106;2022-12-16T03:42:05;99239.69;;;2.45;100.00
54978;BME280;40873;47.522;19.106;2022-12-16T03:44:34;99233.94;;;2.58;100.00
54978;BME280;40873;47.522;19.106;2022-12-16T03:47:01;99251.66;;;2.87;100.00
54978;BME280;40873;47.522;19.106;2022-12-16T03:49:28;99234.16;;;2.72;100.00
54978;BME280;40873;47.522;19.106;2022-12-16T03:51:55;99237.78;;;2.68;100.00
54978;BME280;40873;47.522;19.106;2022-12-16T03:54:22;99225.50;;;2.71;100.00
54978;BME280;40873;47.522;19.106;2022-12-16T03:56:50;99217.53;;;2.74;100.00
54978;BME280;40873;47.522;19.106;2022-12-16T03:59:17;99215.00;;;2.73;100.00
54978;BME280;40873;47.522;19.106;2022-12-16T04:01:44;99209.78;;;2.73;100.00
54978;BME280;40873;47.522;19.106;2022-12-16T04:04:11;99215.75;;;2.75;100.00
54978;BME280;40873;47.522;19.106;2022-12-16T04:06:38;99204.41;;;2.76;100.00
54978;BME280;40873;47.522;19.106;2022-12-16T04:09:05;99186.91;;;2.80;100.00
54978;BME280;40873;47.522;19.106;2022-12-16T04:11:32;99179.94;;;2.80;100.00
54978;BME280;40873;47.522;19.106;2022-12-16T04:14:18;99174.44;;;2.86;100.00
54978;BME280;40873;47.522;19.106;2022-12-16T04:17:04;99176.25;;;2.84;100.00
54978;BME280;40873;47.522;19.106;2022-12-16T04:19:50;99176.25;;;2.84;100.00
54978;BME280;40873;47.522;19.106;2022-12-16T04:22:41;99160.50;;;2.87;100.00
54978;BME280;40873;47.522;19.106;2022-12-16T04:25:32;99160.03;;;2.96;100.00
54978;BME280;40873;47.522;19.106;2022-12-16T04:28:02;99173.81;;;2.98;100.00
54978;BME280;40873;47.522;19.106;2022-12-16T04:30:30;99177.59;;;2.93;100.00
54978;BME280;40873;47.522;19.106;2022-12-16T04:33:11;99170.47;;;2.96;100.00
54978;BME280;40873;47.522;19.106;2022-12-16T04:35:58;99166.38;;;2.91;100.00
54978;BME280;40873;47.522;19.106;2022-12-16T04:38:44;99162.34;;;2.85;100.00
54978;BME280;40873;47.522;19.106;2022-12-16T04:41:30;99146.06;;;2.80;100.00
54978;BME280;40873;47.522;19.106;2022-12-16T04:44:15;99143.38;;;2.82;100.00
54978;BME280;40873;47.522;19.106;2022-12-16T04:47:01;99157.81;;;2.89;100.00
54978;BME280;40873;47.522;19.106;2022-12-16T04:49:47;99161.53;;;2.83;100.00
54978;BME280;40873;47.522;19.106;2022-12-16T04:52:32;99157.53;;;2.76;100.00
54978;BME280;40873;47.522;19.106;2022-12-16T04:55:18;99154.94;;;2.76;100.00
54978;BME280;40873;47.522;19.106;2022-12-16T04:58:04;99150.50;;;2.78;100.00
54978;BME280;40873;47.522;19.106;2022-12-16T05:00:50;99178.53;;;2.73;100.00
54978;BME280;40873;47.522;19.106;2022-12-16T05:03:36;99147.50;;;2.68;100.00
54978;BME280;40873;47.522;19.106;2022-12-16T05:06:22;99147.50;;;2.68;100.00
54978;BME280;40873;47.522;19.106;2022-12-16T05:09:07;99171.69;;;2.70;100.00
54978;BME280;40873;47.522;19.106;2022-12-16T05:11:53;99158.34;;;2.59;100.00
54978;BME280;40873;47.522;19.106;2022-12-16T05:14:38;99145.16;;;2.62;100.00
54978;BME280;40873;47.522;19.106;2022-12-16T05:17:24;99127.56;;;2.67;100.00
54978;BME280;40873;47.522;19.106;2022-12-16T05:20:09;99136.22;;;2.68;100.00
54978;BME280;40873;47.522;19.106;2022-12-16T05:22:55;99134.47;;;2.68;100.00
54978;BME280;40873;47.522;19.106;2022-12-16T05:25:41;99137.91;;;2.69;100.00
54978;BME280;40873;47.522;19.106;2022-12-16T05:28:28;99127.56;;;2.67;100.00
54978;BME280;40873;47.522;19.106;2022-12-16T05:31:13;99113.34;;;2.74;100.00
54978;BME280;40873;47.522;19.106;2022-12-16T05:33:59;99119.69;;;2.69;100.00
54978;BME280;40873;47.522;19.106;2022-12-16T05:36:44;99131.03;;;2.68;100.00
54978;BME280;40873;47.522;19.106;2022-12-16T05:39:30;99151.03;;;2.48;100.00
54978;BME280;40873;47.522;19.106;2022-12-16T05:42:16;99141.53;;;2.47;100.00
54978;BME280;40873;47.522;19.106;2022-12-16T05:45:01;99146.09;;;2.42;100.00
54978;BME280;40873;47.522;19.106;2022-12-16T05:47:47;99132.38;;;2.58;100.00
54978;BME280;40873;47.522;19.106;2022-12-16T05:50:34;99126.09;;;2.62;100.00
54978;BME280;40873;47.522;19.106;2022-12-16T05:53:21;99128.13;;;2.74;100.00
54978;BME280;40873;47.522;19.106;2022-12-16T05:56:07;99126.44;;;2.73;100.00
54978;BME280;40873;47.522;19.106;2022-12-16T05:59:12;99132.13;;;2.81;100.00
54978;BME280;40873;47.522;19.106;2022-12-16T06:01:58;99127.84;;;2.80;100.00
54978;BME280;40873;47.522;19.106;2022-12-16T06:04:44;99132.63;;;2.70;100.00
54978;BME280;40873;47.522;19.106;2022-12-16T06:07:30;99142.81;;;2.58;100.00
54978;BME280;40873;47.522;19.106;2022-12-16T06:10:16;99152.34;;;2.57;100.00
54978;BME280;40873;47.522;19.106;2022-12-16T06:13:01;99143.19;;;2.67;100.00
54978;BME280;40873;47.522;19.106;2022-12-16T06:15:47;99154.09;;;2.75;100.00
54978;BME280;40873;47.522;19.106;2022-12-16T06:18:35;99153.97;;;2.79;100.00
54978;BME280;40873;47.522;19.106;2022-12-16T06:21:21;99145.06;;;2.83;100.00
54978;BME280;40873;47.522;19.106;2022-12-16T06:24:07;99146.38;;;2.91;100.00
54978;BME280;40873;47.522;19.106;2022-12-16T06:26:53;99145.53;;;2.91;100.00
54978;BME280;40873;47.522;19.106;2022-12-16T06:29:38;99142.63;;;2.97;100.00
54978;BME280;40873;47.522;19.106;2022-12-16T06:32:23;99147.72;;;3.00;100.00
54978;BME280;40873;47.522;19.106;2022-12-16T06:35:09;99147.94;;;2.95;100.00
54978;BME280;40873;47.522;19.106;2022-12-16T06:37:55;99154.44;;;3.04;100.00
54978;BME280;40873;47.522;19.106;2022-12-16T06:40:40;99144.44;;;3.14;100.00
54978;BME280;40873;47.522;19.106;2022-12-16T06:43:26;99160.13;;;3.12;100.00
54978;BME280;40873;47.522;19.106;2022-12-16T06:46:11;99164.50;;;3.12;100.00
54978;BME280;40873;47.522;19.106;2022-12-16T06:48:57;99164.44;;;3.13;100.00
54978;BME280;40873;47.522;19.106;2022-12-16T06:51:43;99152.94;;;3.17;100.00
54978;BME280;40873;47.522;19.106;2022-12-16T06:54:28;99150.19;;;3.20;100.00
54978;BME280;40873;47.522;19.106;2022-12-16T06:57:14;99162.59;;;3.15;100.00
54978;BME280;40873;47.522;19.106;2022-12-16T06:59:59;99147.66;;;3.19;100.00
54978;BME280;40873;47.522;19.106;2022-12-16T07:02:44;99148.34;;;3.22;100.00
54978;BME280;40873;47.522;19.106;2022-12-16T07:05:30;99143.13;;;3.22;100.00
54978;BME280;40873;47.522;19.106;2022-12-16T07:08:16;99163.16;;;3.22;100.00
54978;BME280;40873;47.522;19.106;2022-12-16T07:11:01;99166.31;;;3.28;100.00
54978;BME280;40873;47.522;19.106;2022-12-16T07:13:46;99163.53;;;3.32;100.00
54978;BME280;40873;47.522;19.106;2022-12-16T07:16:32;99162.78;;;3.29;100.00
54978;BME280;40873;47.522;19.106;2022-12-16T07:19:42;99164.22;;;3.35;100.00
54978;BME280;40873;47.522;19.106;2022-12-16T07:22:28;99162.47;;;3.36;100.00
54978;BME280;40873;47.522;19.106;2022-12-16T07:25:18;99159.88;;;3.36;100.00
54978;BME280;40873;47.522;19.106;2022-12-16T07:28:03;99151.97;;;3.37;100.00
54978;BME280;40873;47.522;19.106;2022-12-16T07:30:49;99157.25;;;3.36;100.00
54978;BME280;40873;47.522;19.106;2022-12-16T07:33:34;99161.47;;;3.38;100.00
54978;BME280;40873;47.522;19.106;2022-12-16T07:36:20;99169.91;;;3.43;100.00
54978;BME280;40873;47.522;19.106;2022-12-16T07:39:05;99175.88;;;3.45;100.00
54978;BME280;40873;47.522;19.106;2022-12-16T07:41:51;99176.72;;;3.46;100.00
54978;BME280;40873;47.522;19.106;2022-12-16T07:44:36;99173.13;;;3.48;100.00
54978;BME280;40873;47.522;19.106;2022-12-16T07:47:22;99165.75;;;3.56;100.00
54978;BME280;40873;47.522;19.106;2022-12-16T07:50:07;99175.88;;;3.63;100.00
54978;BME280;40873;47.522;19.106;2022-12-16T07:52:57;99169.75;;;3.64;100.00
54978;BME280;40873;47.522;19.106;2022-12-16T07:55:44;99170.91;;;3.58;100.00
54978;BME280;40873;47.522;19.106;2022-12-16T07:58:30;99177.50;;;3.65;100.00
54978;BME280;40873;47.522;19.106;2022-12-16T08:01:16;99167.69;;;3.70;100.00
54978;BME280;40873;47.522;19.106;2022-12-16T08:04:22;99164.81;;;3.75;100.00
54978;BME280;40873;47.522;19.106;2022-12-16T08:07:07;99168.72;;;3.83;100.00
54978;BME280;40873;47.522;19.106;2022-12-16T08:09:52;99175.47;;;3.88;100.00
54978;BME280;40873;47.522;19.106;2022-12-16T08:12:38;99167.56;;;3.89;100.00
54978;BME280;40873;47.522;19.106;2022-12-16T08:15:24;99173.06;;;4.00;100.00
54978;BME280;40873;47.522;19.106;2022-12-16T08:18:09;99156.13;;;4.25;100.00
54978;BME280;40873;47.522;19.106;2022-12-16T08:20:55;99165.63;;;4.26;100.00
54978;BME280;40873;47.522;19.106;2022-12-16T08:23:52;99182.16;;;4.09;100.00
54978;BME280;40873;47.522;19.106;2022-12-16T08:26:38;99171.94;;;4.37;100.00
54978;BME280;40873;47.522;19.106;2022-12-16T08:29:24;99158.75;;;4.25;100.00
54978;BME280;40873;47.522;19.106;2022-12-16T08:32:12;99155.94;;;4.12;100.00
54978;BME280;40873;47.522;19.106;2022-12-16T08:34:58;99151.53;;;4.12;100.00
54978;BME280;40873;47.522;19.106;2022-12-16T08:37:45;99159.47;;;4.11;100.00
54978;BME280;40873;47.522;19.106;2022-12-16T08:40:40;99156.06;;;4.09;100.00
54978;BME280;40873;47.522;19.106;2022-12-16T08:43:30;99165.84;;;4.05;100.00
54978;BME280;40873;47.522;19.106;2022-12-16T08:46:16;99179.84;;;4.20;100.00
54978;BME280;40873;47.522;19.106;2022-12-16T08:49:03;99193.44;;;4.27;100.00
54978;BME280;40873;47.522;19.106;2022-12-16T08:51:48;99196.66;;;4.32;100.00
54978;BME280;40873;47.522;19.106;2022-12-16T08:54:34;99185.50;;;4.28;100.00
54978;BME280;40873;47.522;19.106;2022-12-16T08:57:24;99195.28;;;4.25;100.00
54978;BME280;40873;47.522;19.106;2022-12-16T09:00:22;99187.00;;;4.17;100.00
54978;BME280;40873;47.522;19.106;2022-12-16T09:03:07;99180.53;;;4.24;100.00
54978;BME280;40873;47.522;19.106;2022-12-16T09:05:57;99204.63;;;4.29;100.00
54978;BME280;40873;47.522;19.106;2022-12-16T09:08:43;99204.13;;;4.38;100.00
54978;BME280;40873;47.522;19.106;2022-12-16T09:11:28;99199.50;;;4.43;100.00
54978;BME280;40873;47.522;19.106;2022-12-16T09:14:17;99205.09;;;4.53;100.00
54978;BME280;40873;47.522;19.106;2022-12-16T09:17:03;99207.72;;;4.53;100.00
54978;BME280;40873;47.522;19.106;2022-12-16T09:19:49;99209.34;;;4.38;100.00
54978;BME280;40873;47.522;19.106;2022-12-16T09:22:42;99206.00;;;4.36;100.00
54978;BME280;40873;47.522;19.106;2022-12-16T09:25:27;99205.06;;;4.37;100.00
54978;BME280;40873;47.522;19.106;2022-12-16T09:28:13;99204.91;;;4.40;100.00
54978;BME280;40873;47.522;19.106;2022-12-16T09:30:58;99214.50;;;4.39;100.00
54978;BME280;40873;47.522;19.106;2022-12-16T09:33:44;99206.75;;;4.38;100.00
54978;BME280;40873;47.522;19.106;2022-12-16T09:36:29;99208.28;;;4.42;100.00
54978;BME280;40873;47.522;19.106;2022-12-16T09:39:15;99217.66;;;4.46;100.00
54978;BME280;40873;47.522;19.106;2022-12-16T09:42:42;99232.28;;;4.49;100.00
54978;BME280;40873;47.522;19.106;2022-12-16T09:45:25;99212.84;;;4.54;100.00
54978;BME280;40873;47.522;19.106;2022-12-16T09:48:26;99230.31;;;4.70;100.00
54978;BME280;40873;47.522;19.106;2022-12-16T09:51:15;99247.34;;;4.77;100.00
54978;BME280;40873;47.522;19.106;2022-12-16T09:54:02;99254.66;;;4.70;100.00
54978;BME280;40873;47.522;19.106;2022-12-16T09:56:48;99243.28;;;4.71;100.00
54978;BME280;40873;47.522;19.106;2022-12-16T09:59:37;99232.16;;;4.67;100.00
54978;BME280;40873;47.522;19.106;2022-12-16T10:02:25;99242.94;;;4.61;100.00
54978;BME280;40873;47.522;19.106;2022-12-16T10:05:14;99240.00;;;4.67;100.00
54978;BME280;40873;47.522;19.106;2022-12-16T10:08:29;99241.44;;;4.73;100.00
54978;BME280;40873;47.522;19.106;2022-12-16T10:11:46;99243.19;;;4.73;100.00
54978;BME280;40873;47.522;19.106;2022-12-16T10:14:48;99253.81;;;4.70;100.00
54978;BME280;40873;47.522;19.106;2022-12-16T10:17:37;99248.50;;;4.55;100.00
54978;BME280;40873;47.522;19.106;2022-12-16T10:20:39;99246.91;;;4.53;100.00
54978;BME280;40873;47.522;19.106;2022-12-16T10:23:33;99241.31;;;4.59;100.00
54978;BME280;40873;47.522;19.106;2022-12-16T10:29:20;99262.72;;;4.65;100.00
54978;BME280;40873;47.522;19.106;2022-12-16T10:32:30;99262.34;;;4.73;100.00
54978;BME280;40873;47.522;19.106;2022-12-16T10:35:23;99264.69;;;4.78;100.00
54978;BME280;40873;47.522;19.106;2022-12-16T10:38:21;99261.47;;;4.73;100.00
54978;BME280;40873;47.522;19.106;2022-12-16T10:41:08;99274.47;;;4.74;100.00
54978;BME280;40873;47.522;19.106;2022-12-16T10:43:57;99259.16;;;4.84;100.00
54978;BME280;40873;47.522;19.106;2022-12-16T10:46:43;99274.66;;;4.87;100.00
54978;BME280;40873;47.522;19.106;2022-12-16T10:49:29;99270.28;;;4.87;100.00
54978;BME280;40873;47.522;19.106;2022-12-16T10:52:20;99272.53;;;4.78;100.00
54978;BME280;40873;47.522;19.106;2022-12-16T10:55:21;99268.16;;;4.78;100.00
54978;BME280;40873;47.522;19.106;2022-12-16T10:58:26;99258.47;;;4.80;100.00
54978;BME280;40873;47.522;19.106;2022-12-16T11:01:25;99256.84;;;4.78;100.00
54978;BME280;40873;47.522;19.106;2022-12-16T11:04:32;99261.88;;;4.65;100.00
54978;BME280;40873;47.522;19.106;2022-12-16T11:10:40;99276.78;;;4.80;100.00
54978;BME280;40873;47.522;19.106;2022-12-16T11:13:35;99279.28;;;4.82;100.00
54978;BME280;40873;47.522;19.106;2022-12-16T11:16:26;99278.50;;;4.80;100.00
54978;BME280;40873;47.522;19.106;2022-12-16T11:19:24;99286.13;;;4.84;100.00
54978;BME280;40873;47.522;19.106;2022-12-16T11:22:16;99279.97;;;4.85;100.00
54978;BME280;40873;47.522;19.106;2022-12-16T11:25:08;99287.88;;;4.84;100.00
54978;BME280;40873;47.522;19.106;2022-12-16T11:28:15;99283.59;;;4.83;100.00
54978;BME280;40873;47.522;19.106;2022-12-16T11:31:06;99287.28;;;4.79;100.00
54978;BME280;40873;47.522;19.106;2022-12-16T11:33:53;99298.44;;;4.82;100.00
54978;BME280;40873;47.522;19.106;2022-12-16T11:36:40;99309.22;;;4.76;100.00
54978;BME280;40873;47.522;19.106;2022-12-16T11:39:28;99313.59;;;4.76;100.00
54978;BME280;40873;47.522;19.106;2022-12-16T11:42:26;99317.88;;;4.77;100.00
54978;BME280;40873;47.522;19.106;2022-12-16T11:45:16;99333.78;;;4.72;100.00
54978;BME280;40873;47.522;19.106;2022-12-16T11:48:15;99356.97;;;4.95;100.00
54978;BME280;40873;47.522;19.106;2022-12-16T11:51:03;99371.50;;;5.01;100.00
54978;BME280;40873;47.522;19.106;2022-12-16T11:53:55;99370.78;;;4.98;100.00
54978;BME280;40873;47.522;19.106;2022-12-16T11:56:44;99365.34;;;4.85;100.00
54978;BME280;40873;47.522;19.106;2022-12-16T12:00:12;99359.88;;;4.74;100.00
54978;BME280;40873;47.522;19.106;2022-12-16T12:03:14;99373.69;;;4.58;100.00
54978;BME280;40873;47.522;19.106;2022-12-16T12:09:20;99365.53;;;4.82;100.00
54978;BME280;40873;47.522;19.106;2022-12-16T12:12:27;99347.56;;;4.76;100.00
54978;BME280;40873;47.522;19.106;2022-12-16T12:15:17;99352.03;;;4.74;100.00
54978;BME280;40873;47.522;19.106;2022-12-16T12:21:38;99314.59;;;4.73;100.00
54978;BME280;40873;47.522;19.106;2022-12-16T12:24:59;99304.72;;;4.78;100.00
54978;BME280;40873;47.522;19.106;2022-12-16T12:28:03;99304.72;;;4.78;100.00
54978;BME280;40873;47.522;19.106;2022-12-16T12:31:02;99300.88;;;4.85;100.00
54978;BME280;40873;47.522;19.106;2022-12-16T12:37:32;99302.81;;;4.82;100.00
54978;BME280;40873;47.522;19.106;2022-12-16T12:40:38;99310.47;;;4.85;100.00
54978;BME280;40873;47.522;19.106;2022-12-16T12:43:40;99324.91;;;4.92;100.00
54978;BME280;40873;47.522;19.106;2022-12-16T12:46:38;99342.97;;;4.97;100.00
54978;BME280;40873;47.522;19.106;2022-12-16T12:52:35;99321.41;;;5.09;100.00
54978;BME280;40873;47.522;19.106;2022-12-16T12:55:41;99330.28;;;5.22;100.00
54978;BME280;40873;47.522;19.106;2022-12-16T12:58:29;99353.03;;;5.20;100.00
54978;BME280;40873;47.522;19.106;2022-12-16T13:01:19;99363.47;;;5.20;100.00
54978;BME280;40873;47.522;19.106;2022-12-16T13:04:12;99371.91;;;5.09;100.00
54978;BME280;40873;47.522;19.106;2022-12-16T13:07:00;99372.09;;;5.22;100.00
54978;BME280;40873;47.522;19.106;2022-12-16T13:16:00;99359.09;;;5.20;100.00
54978;BME280;40873;47.522;19.106;2022-12-16T13:18:46;99362.72;;;5.18;100.00
54978;BME280;40873;47.522;19.106;2022-12-16T13:27:15;99346.53;;;5.27;100.00
54978;BME280;40873;47.522;19.106;2022-12-16T13:30:05;99350.25;;;5.39;100.00
54978;BME280;40873;47.522;19.106;2022-12-16T13:33:07;99354.03;;;5.33;100.00
54978;BME280;40873;47.522;19.106;2022-12-16T13:36:05;99355.97;;;5.14;100.00
54978;BME280;40873;47.522;19.106;2022-12-16T13:38:53;99378.75;;;5.12;100.00
54978;BME280;40873;47.522;19.106;2022-12-16T13:48:25;99418.94;;;4.76;100.00
54978;BME280;40873;47.522;19.106;2022-12-16T13:50:43;99423.25;;;4.77;100.00
54978;BME280;40873;47.522;19.106;2022-12-16T13:53:42;99412.13;;;4.74;100.00
54978;BME280;40873;47.522;19.106;2022-12-16T13:56:34;99422.41;;;4.77;100.00
54978;BME280;40873;47.522;19.106;2022-12-16T13:59:24;99423.88;;;4.82;100.00
54978;BME280;40873;47.522;19.106;2022-12-16T14:02:25;99435.56;;;4.75;100.00
54978;BME280;40873;47.522;19.106;2022-12-16T14:05:18;99453.22;;;4.70;100.00
54978;BME280;40873;47.522;19.106;2022-12-16T14:08:04;99455.75;;;4.72;100.00
54978;BME280;40873;47.522;19.106;2022-12-16T14:10:58;99459.75;;;4.79;100.00
54978;BME280;40873;47.522;19.106;2022-12-16T14:14:19;99451.91;;;4.79;100.00
54978;BME280;40873;47.522;19.106;2022-12-16T14:17:16;99439.53;;;4.82;100.00
54978;BME280;40873;47.522;19.106;2022-12-16T14:20:15;99439.47;;;4.84;100.00
54978;BME280;40873;47.522;19.106;2022-12-16T14:23:20;99435.84;;;4.86;100.00
54978;BME280;40873;47.522;19.106;2022-12-16T14:26:25;99434.53;;;4.78;100.00
54978;BME280;40873;47.522;19.106;2022-12-16T14:29:21;99429.19;;;4.81;100.00
54978;BME280;40873;47.522;19.106;2022-12-16T14:35:13;99440.53;;;4.80;100.00
54978;BME280;40873;47.522;19.106;2022-12-16T14:38:34;99450.13;;;4.79;100.00
54978;BME280;40873;47.522;19.106;2022-12-16T14:41:23;99461.44;;;4.80;100.00
54978;BME280;40873;47.522;19.106;2022-12-16T14:44:19;99479.19;;;5.08;100.00
54978;BME280;40873;47.522;19.106;2022-12-16T14:47:15;99469.50;;;5.10;100.00
54978;BME280;40873;47.522;19.106;2022-12-16T14:50:01;99464.22;;;4.94;100.00
54978;BME280;40873;47.522;19.106;2022-12-16T14:52:48;99467.59;;;4.79;100.00
54978;BME280;40873;47.522;19.106;2022-12-16T14:55:34;99473.53;;;4.82;100.00
54978;BME280;40873;47.522;19.106;2022-12-16T14:58:21;99470.16;;;4.80;100.00
54978;BME280;40873;47.522;19.106;2022-12-16T15:01:18;99462.97;;;4.84;100.00
54978;BME280;40873;47.522;19.106;2022-12-16T15:04:13;99471.75;;;4.83;100.00
54978;BME280;40873;47.522;19.106;2022-12-16T15:07:04;99458.69;;;4.83;100.00
54978;BME280;40873;47.522;19.106;2022-12-16T15:09:58;99469.28;;;4.80;100.00
54978;BME280;40873;47.522;19.106;2022-12-16T15:12:45;99451.06;;;4.78;100.00
54978;BME280;40873;47.522;19.106;2022-12-16T15:15:37;99476.44;;;4.76;100.00
54978;BME280;40873;47.522;19.106;2022-12-16T15:18:31;99474.00;;;4.73;100.00
54978;BME280;40873;47.522;19.106;2022-12-16T15:21:18;99476.75;;;4.70;100.00
54978;BME280;40873;47.522;19.106;2022-12-16T15:24:08;99487.97;;;4.55;100.00
54978;BME280;40873;47.522;19.106;2022-12-16T15:30:32;99522.25;;;4.30;100.00
54978;BME280;40873;47.522;19.106;2022-12-16T15:33:21;99530.88;;;4.13;100.00